Time;durP1;ratioP1;P1;durP2;ratioP2;P2;SDS_P1;SDS_P2;PMS_P1;PMS_P2;Temp;Humidity;BMP_temperature;BMP_pressure;BME280_temperature;BME280_humidity;BME280_pressure;Samples;Min_cycle;Max_cycle;Signal;HPM_P1;HPM_P2
2023/09/13 00:01:59;;;;;;;5.47;2.75;;;;;;;19.96;87.86;97115.22;5026431;28;20052;-48
2023/09/13 00:04:26;;;;;;;4.70;2.85;;;;;;;19.90;88.17;97113.75;5023557;28;20100;-51
2023/09/13 00:06:53;;;;;;;5.68;3.03;;;;;;;19.88;87.76;97116.00;5026100;28;20049;-52
2023/09/13 00:09:19;;;;;;;6.03;2.40;;;;;;;19.96;84.77;97106.97;5025106;28;20033;-53
2023/09/13 00:11:47;;;;;;;5.05;3.15;;;;;;;19.98;84.88;97120.41;5031566;28;20716;-52
2023/09/13 00:14:14;;;;;;;5.45;2.60;;;;;;;19.87;85.67;97123.44;5024445;28;20044;-50
2023/09/13 00:16:40;;;;;;;5.45;2.38;;;;;;;19.85;84.81;97122.13;5030620;28;20053;-49
2023/09/13 00:19:07;;;;;;;3.45;2.08;;;;;;;19.93;85.01;97123.31;5026419;28;20519;-51
2023/09/13 00:21:34;;;;;;;4.35;2.58;;;;;;;19.98;84.80;97123.97;5030963;28;20044;-52
2023/09/13 00:24:01;;;;;;;4.10;2.38;;;;;;;19.91;88.05;97122.81;5028746;28;20049;-51
2023/09/13 00:26:27;;;;;;;4.97;2.78;;;;;;;19.76;96.64;97122.91;5031480;28;20041;-48
2023/09/13 00:28:54;;;;;;;4.93;2.80;;;;;;;19.38;98.35;97117.16;5032379;28;20584;-51
2023/09/13 00:31:21;;;;;;;3.72;2.40;;;;;;;19.15;100.00;97119.91;5021699;28;20131;-49
2023/09/13 00:33:47;;;;;;;6.53;2.50;;;;;;;18.98;100.00;97116.75;5025817;28;20103;-50
2023/09/13 00:36:14;;;;;;;5.28;2.78;;;;;;;18.66;100.00;97115.06;5027235;28;20677;-48
2023/09/13 00:38:41;;;;;;;6.47;3.10;;;;;;;18.14;100.00;97121.75;5027614;28;20553;-49
2023/09/13 00:41:07;;;;;;;4.90;2.92;;;;;;;18.00;100.00;97138.19;5025797;28;20590;-48
2023/09/13 00:43:34;;;;;;;5.25;3.50;;;;;;;18.05;100.00;97122.44;5029283;28;20053;-50
2023/09/13 00:46:02;;;;;;;7.13;3.90;;;;;;;18.16;100.00;97114.03;5030740;28;20041;-48
2023/09/13 00:48:29;;;;;;;5.47;3.63;;;;;;;18.19;100.00;97099.72;5034462;28;20070;-50
2023/09/13 00:50:58;;;;;;;6.07;3.55;;;;;;;18.26;100.00;97089.16;5029521;28;20067;-51
2023/09/13 00:53:26;;;;;;;6.10;3.40;;;;;;;18.25;100.00;97079.31;5033111;28;20068;-50
2023/09/13 00:55:54;;;;;;;5.28;3.50;;;;;;;18.19;100.00;97078.63;5027105;28;20088;-48
2023/09/13 00:58:21;;;;;;;5.60;3.60;;;;;;;18.03;100.00;97080.84;5030347;28;20566;-52
2023/09/13 01:00:53;;;;;;;6.22;3.80;;;;;;;17.57;100.00;97101.00;5038055;28;20503;-50
2023/09/13 01:03:21;;;;;;;8.68;4.75;;;;;;;17.43;100.00;97145.56;5034577;28;20033;-49
2023/09/13 01:05:52;;;;;;;6.13;3.90;;;;;;;17.21;100.00;97138.06;5029029;28;20032;-48
2023/09/13 01:08:22;;;;;;;8.60;5.35;;;;;;;17.10;100.00;97129.25;5030931;28;20044;-48
2023/09/13 01:10:49;;;;;;;5.05;3.63;;;;;;;17.15;100.00;97137.34;5027332;28;20053;-48
2023/09/13 01:13:15;;;;;;;5.93;4.20;;;;;;;17.21;100.00;97116.19;5032790;28;20047;-48
2023/09/13 01:16:09;;;;;;;7.75;3.90;;;;;;;17.19;100.00;97132.91;5031140;28;20037;-50
2023/09/13 01:18:49;;;;;;;6.90;4.40;;;;;;;16.96;100.00;97168.28;5025911;28;20044;-50
2023/09/13 01:21:42;;;;;;;6.85;4.20;;;;;;;16.99;100.00;97178.59;5031356;28;20591;-51
2023/09/13 01:24:20;;;;;;;6.68;4.03;;;;;;;16.98;100.00;97166.03;5019933;28;20135;-48
2023/09/13 01:27:19;;;;;;;7.53;4.53;;;;;;;16.95;100.00;97176.78;5027200;28;20053;-49
2023/09/13 01:29:46;;;;;;;8.02;4.97;;;;;;;16.93;100.00;97200.84;5023149;28;20052;-47
2023/09/13 01:32:13;;;;;;;8.98;4.75;;;;;;;17.00;100.00;97180.22;5030376;28;20048;-50
2023/09/13 01:34:40;;;;;;;8.02;4.75;;;;;;;17.11;100.00;97159.03;5032660;28;20040;-52
2023/09/13 01:37:06;;;;;;;5.43;3.85;;;;;;;17.16;100.00;97134.31;5033162;28;20058;-51
2023/09/13 01:39:33;;;;;;;7.30;4.65;;;;;;;17.26;100.00;97135.25;5027368;28;20616;-51
2023/09/13 01:42:05;;;;;;;7.65;4.50;;;;;;;17.28;100.00;97154.88;5034504;28;20052;-48
2023/09/13 01:44:34;;;;;;;8.07;4.13;;;;;;;17.16;100.00;97185.47;5005394;28;20068;-48
2023/09/13 01:47:03;;;;;;;6.47;4.60;;;;;;;17.09;100.00;97195.97;5031776;28;20056;-51
2023/09/13 01:49:32;;;;;;;6.45;4.68;;;;;;;17.07;100.00;97203.69;5027171;28;20121;-51
2023/09/13 01:51:59;;;;;;;7.43;4.80;;;;;;;17.04;100.00;97191.38;5029939;28;20045;-51
2023/09/13 01:54:25;;;;;;;6.20;4.35;;;;;;;16.99;100.00;97175.84;5033697;28;20056;-51
2023/09/13 01:56:52;;;;;;;7.75;4.30;;;;;;;16.96;100.00;97176.47;5030442;28;20496;-48
2023/09/13 01:59:19;;;;;;;6.65;4.90;;;;;;;16.94;100.00;97181.41;5033691;28;20043;-49
2023/09/13 02:01:45;;;;;;;7.75;5.03;;;;;;;16.89;100.00;97173.31;5028741;28;20164;-48
2023/09/13 02:04:12;;;;;;;6.65;4.10;;;;;;;16.88;100.00;97147.09;5030117;28;20091;-48
2023/09/13 02:06:39;;;;;;;10.95;3.90;;;;;;;16.87;100.00;97137.22;5024864;28;20129;-51
2023/09/13 02:09:06;;;;;;;8.10;4.10;;;;;;;16.87;100.00;97120.81;5032746;28;20132;-48
2023/09/13 02:11:33;;;;;;;7.68;4.35;;;;;;;16.81;100.00;97131.03;5031669;28;20640;-49
2023/09/13 02:13:59;;;;;;;8.77;4.68;;;;;;;16.74;100.00;97131.41;5034426;28;20589;-49
2023/09/13 02:16:26;;;;;;;7.85;5.00;;;;;;;16.64;100.00;97151.56;5020462;28;20525;-50
2023/09/13 02:18:52;;;;;;;6.97;5.00;;;;;;;16.56;100.00;97170.53;5033597;28;20547;-50
2023/09/13 02:21:19;;;;;;;6.97;4.60;;;;;;;16.51;100.00;97166.75;5051801;28;20055;-49
2023/09/13 02:23:46;;;;;;;9.52;5.18;;;;;;;16.50;100.00;97143.28;5034815;28;20072;-48
2023/09/13 02:26:23;;;;;;;8.25;4.57;;;;;;;16.56;100.00;97135.81;5023527;28;20092;-48
2023/09/13 02:28:52;;;;;;;8.50;4.30;;;;;;;16.59;100.00;97134.41;5033117;28;20049;-48
2023/09/13 02:31:28;;;;;;;6.28;4.72;;;;;;;16.56;100.00;97124.06;5027247;28;20049;-49
2023/09/13 02:33:55;;;;;;;7.45;4.30;;;;;;;16.55;100.00;97125.19;5031246;28;20155;-49
2023/09/13 02:36:24;;;;;;;8.20;4.32;;;;;;;16.47;100.00;97134.88;5029461;28;20520;-48
2023/09/13 02:38:53;;;;;;;6.93;4.53;;;;;;;16.43;100.00;97161.97;5030058;28;20049;-50
2023/09/13 02:41:19;;;;;;;8.18;4.53;;;;;;;16.45;100.00;97170.69;5036146;28;20557;-51
2023/09/13 02:43:46;;;;;;;7.68;3.75;;;;;;;16.43;100.00;97155.69;5034498;28;20045;-50
2023/09/13 02:46:13;;;;;;;7.95;4.50;;;;;;;16.51;100.00;97177.69;5025928;28;20061;-49
2023/09/13 02:48:40;;;;;;;7.05;4.28;;;;;;;16.55;100.00;97169.69;5035344;28;20064;-48
2023/09/13 02:51:12;;;;;;;8.13;4.50;;;;;;;16.53;100.00;97150.06;5033095;28;20041;-47
2023/09/13 02:53:38;;;;;;;;;;;;;;;16.56;100.00;97162.31;5016171;28;20042;-47
2023/09/13 02:56:06;;;;;;;6.20;3.70;;;;;;;16.51;100.00;97179.59;5026883;28;19964;-47
2023/09/13 02:58:33;;;;;;;5.72;3.90;;;;;;;16.51;100.00;97146.81;5032275;28;20076;-51
2023/09/13 03:01:03;;;;;;;7.05;3.90;;;;;;;16.67;100.00;97136.47;5024837;28;20500;-50
2023/09/13 03:03:31;;;;;;;5.10;3.55;;;;;;;16.80;100.00;97117.69;5010552;28;20127;-49
2023/09/13 03:06:06;;;;;;;8.70;3.60;;;;;;;16.91;100.00;97119.13;5025470;28;20042;-47
2023/09/13 03:08:33;;;;;;;6.25;3.58;;;;;;;17.05;100.00;97121.91;5030194;28;20041;-48
2023/09/13 03:11:18;;;;;;;5.25;3.28;;;;;;;17.11;100.00;97115.25;5026181;28;20047;-48
2023/09/13 03:13:45;;;;;;;7.57;3.90;;;;;;;17.23;100.00;97109.28;5051166;28;20103;-50
2023/09/13 03:16:20;;;;;;;7.25;3.30;;;;;;;17.29;100.00;97123.69;5023397;28;20144;-48
2023/09/13 03:18:50;;;;;;;8.48;3.42;;;;;;;17.35;100.00;97124.38;5032565;28;20106;-49
2023/09/13 03:21:21;;;;;;;10.80;3.70;;;;;;;17.39;100.00;97123.50;5026369;28;20128;-47
2023/09/13 03:23:49;;;;;;;5.53;3.45;;;;;;;17.42;100.00;97119.34;5030437;28;20057;-47
2023/09/13 03:26:24;;;;;;;5.20;3.40;;;;;;;17.49;100.00;97121.66;5023098;28;20038;-52
2023/09/13 03:28:54;;;;;;;5.05;2.78;;;;;;;17.52;100.00;97118.31;5027672;28;20464;-51
2023/09/13 03:31:23;;;;;;;4.38;3.13;;;;;;;17.52;100.00;97100.00;5028902;28;20043;-52
2023/09/13 03:33:53;;;;;;;5.65;3.70;;;;;;;17.51;100.00;97116.72;5033480;28;20051;-53
2023/09/13 03:36:21;;;;;;;6.85;3.42;;;;;;;17.44;100.00;97124.50;5031557;28;20049;-50
2023/09/13 03:38:51;;;;;;;5.63;3.50;;;;;;;17.45;100.00;97117.91;5023567;28;20045;-49
2023/09/13 03:41:22;;;;;;;5.90;3.53;;;;;;;17.43;100.00;97110.00;5027553;28;20048;-50
2023/09/13 03:43:49;;;;;;;6.35;3.70;;;;;;;17.36;100.00;97098.66;5020451;28;20065;-52
2023/09/13 03:46:16;;;;;;;5.22;3.78;;;;;;;17.36;100.00;97104.94;5027041;28;20042;-48
2023/09/13 03:48:44;;;;;;;5.57;3.20;;;;;;;17.39;100.00;97118.03;5029701;28;20056;-49
2023/09/13 03:51:15;;;;;;;5.97;3.80;;;;;;;17.41;100.00;97110.34;5023462;28;20389;-49
2023/09/13 03:53:41;;;;;;;6.07;3.40;;;;;;;17.47;100.00;97099.28;5046430;28;20049;-50
2023/09/13 03:56:08;;;;;;;6.75;3.50;;;;;;;17.40;100.00;97111.41;5030552;28;20497;-48
2023/09/13 03:58:35;;;;;;;5.30;3.65;;;;;;;17.33;100.00;97119.25;5028528;28;20064;-52
2023/09/13 04:01:03;;;;;;;7.18;4.38;;;;;;;17.33;100.00;97121.97;5032867;28;20571;-49
2023/09/13 04:03:31;;;;;;;4.80;2.95;;;;;;;17.34;100.00;97120.84;5026991;28;20431;-48
2023/09/13 04:05:58;;;;;;;6.93;3.70;;;;;;;17.37;100.00;97133.94;5024984;28;20444;-48
2023/09/13 04:08:25;;;;;;;5.97;3.65;;;;;;;17.34;100.00;97137.28;5030795;28;20139;-49
2023/09/13 04:10:52;;;;;;;4.72;3.50;;;;;;;17.39;100.00;97139.09;5030261;28;20039;-48
2023/09/13 04:13:18;;;;;;;6.68;3.63;;;;;;;17.39;100.00;97136.34;5035016;28;20053;-48
2023/09/13 04:15:45;;;;;;;6.90;3.80;;;;;;;17.44;100.00;97139.00;5024277;28;20045;-48
2023/09/13 04:18:13;;;;;;;5.50;3.00;;;;;;;17.45;100.00;97145.28;5018193;28;20520;-48
2023/09/13 04:20:42;;;;;;;5.85;3.80;;;;;;;17.41;100.00;97136.88;5019331;28;20078;-49
2023/09/13 04:23:09;;;;;;;5.93;3.60;;;;;;;17.40;100.00;97140.72;5032698;28;20047;-50
2023/09/13 04:25:37;;;;;;;7.20;3.60;;;;;;;17.48;100.00;97142.78;5022040;28;20115;-49
2023/09/13 04:28:06;;;;;;;5.88;3.90;;;;;;;17.44;100.00;97141.75;5019391;28;20051;-50
2023/09/13 04:30:33;;;;;;;8.27;3.58;;;;;;;17.45;100.00;97140.63;5052491;28;20041;-52
2023/09/13 04:33:06;;;;;;;6.80;4.15;;;;;;;17.46;100.00;97157.88;5021147;28;20079;-51
2023/09/13 04:35:33;;;;;;;4.70;3.35;;;;;;;17.42;100.00;97153.00;5021999;28;20037;-50
2023/09/13 04:37:59;;;;;;;6.13;4.00;;;;;;;17.45;100.00;97157.06;5019452;28;20051;-52
2023/09/13 04:40:26;;;;;;;5.50;3.40;;;;;;;17.46;100.00;97152.41;5021603;28;20045;-52
2023/09/13 04:43:05;;;;;;;6.30;3.95;;;;;;;17.45;100.00;97158.97;5023981;28;20621;-53
2023/09/13 04:45:33;;;;;;;6.05;3.45;;;;;;;17.50;100.00;97165.16;5022139;28;20038;-49
2023/09/13 04:48:01;;;;;;;6.93;4.07;;;;;;;17.45;100.00;97165.25;5021205;28;20049;-48
2023/09/13 04:50:28;;;;;;;5.32;3.40;;;;;;;17.47;100.00;97157.53;5027117;28;20463;-51
2023/09/13 04:52:55;;;;;;;7.65;3.90;;;;;;;17.49;100.00;97168.19;5021223;28;20056;-52
2023/09/13 04:55:23;;;;;;;6.80;4.18;;;;;;;17.46;100.00;97171.56;5024841;28;20037;-49
2023/09/13 04:57:50;;;;;;;6.18;4.22;;;;;;;17.40;100.00;97168.09;5021771;28;20042;-49
2023/09/13 05:00:17;;;;;;;8.05;3.60;;;;;;;17.44;100.00;97174.59;5022898;28;20042;-52
2023/09/13 05:02:44;;;;;;;5.07;3.75;;;;;;;17.40;100.00;97176.31;5018126;28;20060;-49
2023/09/13 05:05:11;;;;;;;7.95;4.43;;;;;;;17.35;100.00;97185.41;5021405;28;20065;-50
2023/09/13 05:07:37;;;;;;;8.00;4.05;;;;;;;17.39;100.00;97185.59;5028654;28;20047;-50
2023/09/13 05:10:04;;;;;;;6.90;3.60;;;;;;;17.43;100.00;97186.63;5027153;28;20041;-50
2023/09/13 05:12:30;;;;;;;7.07;3.85;;;;;;;17.47;100.00;97187.66;5019335;28;20050;-51
2023/09/13 05:14:57;;;;;;;5.78;3.80;;;;;;;17.48;100.00;97185.75;5024621;28;20045;-51
2023/09/13 05:17:24;;;;;;;5.30;3.63;;;;;;;17.53;100.00;97178.25;5021339;28;20079;-53
2023/09/13 05:19:50;;;;;;;5.53;3.50;;;;;;;17.49;100.00;97171.75;5021313;28;20049;-49
2023/09/13 05:22:17;;;;;;;4.82;3.10;;;;;;;17.49;100.00;97185.44;5020865;28;20034;-49
2023/09/13 05:24:43;;;;;;;5.60;3.65;;;;;;;17.57;100.00;97188.59;5018430;28;20053;-48
2023/09/13 05:27:10;;;;;;;6.80;3.65;;;;;;;17.49;100.00;97177.22;5020663;28;20041;-49
2023/09/13 05:29:36;;;;;;;8.15;3.80;;;;;;;17.57;100.00;97185.88;5024983;28;20462;-51
2023/09/13 05:32:03;;;;;;;9.73;2.92;;;;;;;17.49;100.00;97193.66;5021829;28;20578;-47
2023/09/13 05:34:30;;;;;;;6.82;3.25;;;;;;;17.49;100.00;97193.66;5023346;28;20047;-49
2023/09/13 05:36:56;;;;;;;4.78;3.17;;;;;;;17.49;100.00;97207.34;5022122;28;20042;-47
2023/09/13 05:39:24;;;;;;;5.25;3.42;;;;;;;17.50;100.00;97200.75;5032500;28;20128;-52
2023/09/13 05:41:53;;;;;;;4.82;2.97;;;;;;;17.55;100.00;97192.44;5023723;28;20188;-50
2023/09/13 05:44:24;;;;;;;5.63;3.10;;;;;;;17.69;100.00;97197.09;5025097;28;20052;-49
2023/09/13 05:46:52;;;;;;;6.93;3.45;;;;;;;17.78;100.00;97187.09;5020550;28;20049;-52
2023/09/13 05:49:19;;;;;;;5.38;2.67;;;;;;;17.83;100.00;97193.59;5023454;28;20558;-48
2023/09/13 05:51:46;;;;;;;4.55;2.90;;;;;;;17.67;100.00;97194.69;5018121;28;20168;-50
2023/09/13 05:54:12;;;;;;;4.85;2.85;;;;;;;17.66;100.00;97195.78;5022871;28;20650;-48
2023/09/13 05:56:41;;;;;;;6.32;3.58;;;;;;;17.60;100.00;97196.19;5024056;28;20132;-51
2023/09/13 05:59:08;;;;;;;6.82;3.67;;;;;;;17.52;100.00;97211.41;5023249;28;20052;-48
2023/09/13 06:01:36;;;;;;;9.13;3.17;;;;;;;17.43;100.00;97203.06;5023227;28;20121;-49
2023/09/13 06:04:05;;;;;;;5.70;2.97;;;;;;;17.48;100.00;97213.94;5023095;28;20045;-63
2023/09/13 06:06:33;;;;;;;6.68;3.00;;;;;;;17.55;100.00;97222.53;5026993;28;20115;-66
2023/09/13 06:09:03;;;;;;;6.35;3.22;;;;;;;17.50;100.00;97224.56;5018652;28;20048;-64
2023/09/13 06:11:31;;;;;;;6.00;2.90;;;;;;;17.50;100.00;97235.50;5020398;28;20531;-64
2023/09/13 06:13:57;;;;;;;4.18;2.50;;;;;;;17.56;100.00;97228.84;5019514;28;20054;-66
2023/09/13 06:16:24;;;;;;;6.72;2.83;;;;;;;17.53;100.00;97235.72;5027477;28;20065;-62
2023/09/13 06:18:52;;;;;;;4.40;2.83;;;;;;;17.46;100.00;97242.72;5021178;28;20130;-66
2023/09/13 06:21:19;;;;;;;6.10;3.35;;;;;;;17.48;100.00;97246.78;5026438;28;20075;-67
2023/09/13 06:23:47;;;;;;;5.43;2.65;;;;;;;17.60;100.00;97249.03;5025999;28;20149;-66
2023/09/13 06:26:14;;;;;;;5.28;2.47;;;;;;;17.67;100.00;97251.38;5025261;28;20041;-63
2023/09/13 06:28:40;;;;;;;6.60;2.75;;;;;;;17.63;100.00;97258.56;5025601;28;20909;-64
2023/09/13 06:31:08;;;;;;;5.20;2.70;;;;;;;17.55;100.00;97258.13;5024764;28;20120;-66
2023/09/13 06:33:43;;;;;;;11.23;3.72;;;;;;;17.56;100.00;97267.16;5024765;28;20073;-66
2023/09/13 06:36:10;;;;;;;7.38;3.33;;;;;;;17.59;100.00;97266.56;5025171;28;20051;-67
2023/09/13 06:38:38;;;;;;;4.72;3.00;;;;;;;17.70;100.00;97264.47;5027556;28;20045;-66
2023/09/13 06:41:05;;;;;;;6.40;3.10;;;;;;;17.70;100.00;97258.97;5026558;28;20815;-66
2023/09/13 06:43:31;;;;;;;8.63;3.20;;;;;;;17.71;100.00;97265.25;5025957;28;20057;-66
2023/09/13 06:46:00;;;;;;;4.95;2.83;;;;;;;17.76;100.00;97265.19;5020790;28;20041;-66
2023/09/13 06:48:32;;;;;;;8.65;3.17;;;;;;;17.75;100.00;97269.84;5023325;28;20041;-66
2023/09/13 06:51:01;;;;;;;5.97;3.13;;;;;;;17.74;100.00;97270.97;5019212;28;20042;-64
2023/09/13 06:53:47;;;;;;;5.35;2.97;;;;;;;17.81;100.00;97271.34;5020908;28;20763;-65
2023/09/13 06:56:17;;;;;;;5.75;3.10;;;;;;;17.82;100.00;97277.66;5025241;28;20094;-66
2023/09/13 06:58:46;;;;;;;4.63;2.67;;;;;;;17.89;100.00;97277.25;5024767;28;20042;-67
2023/09/13 07:01:16;;;;;;;4.93;2.65;;;;;;;17.93;100.00;97281.84;5020399;28;20037;-66
2023/09/13 07:03:46;;;;;;;5.50;2.83;;;;;;;17.91;100.00;97277.78;5017580;28;20041;-66
2023/09/13 07:06:21;;;;;;;5.72;2.70;;;;;;;17.91;100.00;97278.56;5023460;28;20047;-66
2023/09/13 07:08:48;;;;;;;5.10;2.72;;;;;;;18.02;100.00;97273.72;5022504;28;20056;-66
2023/09/13 07:11:16;;;;;;;6.20;2.95;;;;;;;17.99;100.00;97281.75;5024491;28;20133;-66
2023/09/13 07:13:42;;;;;;;4.35;2.75;;;;;;;17.94;100.00;97280.72;5019475;28;20839;-66
2023/09/13 07:16:09;;;;;;;6.72;2.90;;;;;;;17.90;100.00;97279.69;5024221;28;20056;-63
2023/09/13 07:18:35;;;;;;;4.65;2.85;;;;;;;18.06;100.00;97277.47;5024005;28;20073;-64
2023/09/13 07:21:03;;;;;;;5.93;3.22;;;;;;;18.13;100.00;97284.53;5026968;28;20043;-65
2023/09/13 07:23:29;;;;;;;5.53;3.10;;;;;;;18.10;100.00;97288.69;5020647;28;20076;-66
2023/09/13 07:25:57;;;;;;;5.65;2.53;;;;;;;18.10;100.00;97285.94;5025275;28;20045;-64
2023/09/13 07:28:24;;;;;;;3.85;2.45;;;;;;;18.18;100.00;97296.16;5020171;28;20042;-65
2023/09/13 07:30:51;;;;;;;4.80;2.70;;;;;;;18.18;100.00;97285.22;5023777;28;20124;-67
2023/09/13 07:33:17;;;;;;;4.55;2.80;;;;;;;18.37;100.00;97286.22;5020890;28;20071;-66
2023/09/13 07:35:44;;;;;;;4.47;2.67;;;;;;;18.44;100.00;97286.63;5023414;28;20136;-65
2023/09/13 07:38:12;;;;;;;4.60;2.55;;;;;;;18.51;100.00;97295.28;5019735;28;20073;-66
2023/09/13 07:40:39;;;;;;;4.85;2.67;;;;;;;18.59;100.00;97307.44;5023713;28;20045;-67
2023/09/13 07:43:07;;;;;;;4.40;2.42;;;;;;;18.49;100.00;97302.97;5021198;28;20045;-67
2023/09/13 07:45:34;;;;;;;5.60;2.10;;;;;;;18.57;100.00;97318.72;5022406;28;20108;-67
2023/09/13 07:48:02;;;;;;;6.30;2.40;;;;;;;18.69;100.00;97314.66;5019593;28;20092;-66
2023/09/13 07:50:32;;;;;;;4.00;2.20;;;;;;;18.74;100.00;97317.28;5023179;28;20822;-66
2023/09/13 07:52:59;;;;;;;3.67;2.25;;;;;;;18.51;100.00;97317.22;5016673;28;20053;-64
2023/09/13 07:55:31;;;;;;;4.53;2.58;;;;;;;18.43;100.00;97317.91;5026614;28;20128;-64
2023/09/13 07:57:58;;;;;;;4.30;2.50;;;;;;;18.37;100.00;97316.38;5026555;28;20048;-65
2023/09/13 08:00:24;;;;;;;5.15;2.35;;;;;;;18.32;100.00;97318.09;5022718;28;20092;-65
2023/09/13 08:02:51;;;;;;;3.90;2.58;;;;;;;18.38;100.00;97315.25;5019631;28;20049;-66
2023/09/13 08:05:18;;;;;;;3.60;2.03;;;;;;;18.44;100.00;97319.53;5022698;28;20049;-67
2023/09/13 08:07:45;;;;;;;3.63;2.10;;;;;;;18.42;100.00;97321.75;5023971;28;20067;-66
2023/09/13 08:10:12;;;;;;;6.40;2.67;;;;;;;18.33;100.00;97321.66;5023425;28;20045;-67
2023/09/13 08:12:40;;;;;;;6.05;2.53;;;;;;;18.25;100.00;97325.13;5021392;28;20180;-66
2023/09/13 08:15:07;;;;;;;4.30;2.63;;;;;;;18.31;100.00;97327.44;5023693;28;20063;-65
2023/09/13 08:17:34;;;;;;;4.25;2.38;;;;;;;18.33;100.00;97330.69;5025014;28;20029;-64
2023/09/13 08:20:02;;;;;;;4.03;2.40;;;;;;;18.23;100.00;97333.63;5028520;28;20041;-65
2023/09/13 08:22:28;;;;;;;6.82;2.80;;;;;;;18.28;100.00;97341.75;5016921;28;20550;-67
2023/09/13 08:25:07;;;;;;;6.72;3.17;;;;;;;18.22;100.00;97336.69;5025581;28;20033;-67
2023/09/13 08:27:37;;;;;;;4.43;2.97;;;;;;;18.28;100.00;97351.91;5019320;28;20140;-66
2023/09/13 08:30:04;;;;;;;4.90;3.30;;;;;;;18.22;100.00;97350.38;5022458;28;20124;-66
2023/09/13 08:32:31;;;;;;;5.95;3.45;;;;;;;18.25;100.00;97352.53;5026628;28;20054;-67
2023/09/13 08:34:58;;;;;;;4.30;2.90;;;;;;;18.27;100.00;97353.00;5025473;28;20064;-67
2023/09/13 08:37:24;;;;;;;5.00;3.05;;;;;;;18.19;100.00;97360.03;5020116;28;20051;-66
2023/09/13 08:39:52;;;;;;;5.50;3.30;;;;;;;18.02;100.00;97355.09;5027027;28;20036;-66
2023/09/13 08:42:19;;;;;;;5.28;3.40;;;;;;;18.12;100.00;97351.38;5027808;28;20099;-66
2023/09/13 08:44:46;;;;;;;5.32;3.10;;;;;;;18.27;100.00;97356.59;5025791;28;20049;-66
2023/09/13 08:47:13;;;;;;;6.03;3.90;;;;;;;18.25;100.00;97352.53;5023391;28;20139;-67
2023/09/13 08:49:41;;;;;;;4.80;3.42;;;;;;;18.24;100.00;97359.91;5022284;28;20072;-66
2023/09/13 08:52:09;;;;;;;6.90;3.45;;;;;;;18.43;100.00;97356.28;5020442;28;20041;-67
2023/09/13 08:54:36;;;;;;;5.57;3.78;;;;;;;18.63;100.00;97357.81;5023598;28;20041;-66
2023/09/13 08:57:25;;;;;;;8.45;3.63;;;;;;;18.69;100.00;97364.00;5020863;28;20060;-66
2023/09/13 08:59:51;;;;;;;4.68;3.05;;;;;;;18.86;100.00;97360.63;5020088;28;20117;-66
2023/09/13 09:02:20;;;;;;;6.50;3.53;;;;;;;18.67;100.00;97358.00;5025574;28;20470;-67
2023/09/13 09:04:48;;;;;;;6.97;3.65;;;;;;;18.57;100.00;97361.75;5022377;28;20053;-67
2023/09/13 09:07:18;;;;;;;6.85;3.00;;;;;;;18.66;100.00;97356.38;5020874;28;20141;-66
2023/09/13 09:09:46;;;;;;;5.43;3.20;;;;;;;18.80;100.00;97367.34;5032771;28;20724;-66
2023/09/13 09:12:16;;;;;;;7.22;3.08;;;;;;;18.82;100.00;97371.41;5022257;28;21132;-66
2023/09/13 09:14:45;;;;;;;5.95;3.17;;;;;;;18.88;100.00;97366.63;5024037;28;20413;-66
2023/09/13 09:17:14;;;;;;;5.90;2.67;;;;;;;18.85;100.00;97375.47;5025004;28;20129;-66
2023/09/13 09:19:41;;;;;;;8.30;3.55;;;;;;;18.86;100.00;97379.81;5028147;28;20567;-66
2023/09/13 09:22:08;;;;;;;11.32;3.72;;;;;;;18.89;100.00;97375.66;5026064;28;20103;-67
2023/09/13 09:24:35;;;;;;;6.13;3.22;;;;;;;18.94;100.00;97378.31;5024988;28;20045;-65
2023/09/13 09:27:02;;;;;;;7.30;3.38;;;;;;;18.85;100.00;97386.44;5025177;28;20045;-65
2023/09/13 09:29:39;;;;;;;5.80;3.22;;;;;;;18.89;100.00;97379.22;5024544;28;20069;-65
2023/09/13 09:32:08;;;;;;;8.23;3.53;;;;;;;18.89;100.00;97392.13;5023483;28;20212;-67
2023/09/13 09:34:41;;;;;;;4.90;3.17;;;;;;;18.74;100.00;97394.06;5023762;28;20048;-67
2023/09/13 09:37:09;;;;;;;9.63;4.10;;;;;;;18.84;100.00;97391.09;5022806;28;20038;-67
2023/09/13 09:39:37;;;;;;;5.15;3.05;;;;;;;19.01;100.00;97399.84;5028960;28;20045;-68
2023/09/13 09:42:04;;;;;;;5.30;3.38;;;;;;;18.90;100.00;97393.75;5024500;28;20065;-67
2023/09/13 09:44:31;;;;;;;6.90;3.35;;;;;;;18.90;100.00;97400.03;5028263;28;20052;-67
2023/09/13 09:46:58;;;;;;;5.53;3.70;;;;;;;18.72;100.00;97399.03;5030203;28;20813;-67
2023/09/13 09:49:25;;;;;;;7.53;3.40;;;;;;;18.82;100.00;97404.31;5025307;28;20692;-67
2023/09/13 09:51:53;;;;;;;5.60;3.65;;;;;;;18.83;100.00;97402.38;5028421;28;20116;-67
2023/09/13 09:54:20;;;;;;;5.85;3.78;;;;;;;18.94;100.00;97400.25;5026975;28;20064;-66
2023/09/13 09:56:46;;;;;;;5.30;2.92;;;;;;;19.11;98.48;97399.66;5023822;28;20045;-67
2023/09/13 09:59:13;;;;;;;5.45;3.28;;;;;;;19.22;98.23;97400.22;5024485;28;20558;-66
2023/09/13 10:01:42;;;;;;;5.13;2.80;;;;;;;19.19;97.58;97404.41;5024777;28;20059;-66
2023/09/13 10:04:10;;;;;;;4.43;2.80;;;;;;;19.28;96.23;97390.78;5024654;28;20064;-67
2023/09/13 10:06:56;;;;;;;4.70;2.75;;;;;;;19.68;94.46;97389.31;5023993;28;20547;-67
2023/09/13 10:09:22;;;;;;;5.60;3.22;;;;;;;19.86;95.11;97388.31;5024126;28;20045;-66
2023/09/13 10:11:56;;;;;;;5.47;3.63;;;;;;;20.24;92.57;97389.84;5025963;28;20048;-66
2023/09/13 10:14:27;;;;;;;6.95;3.13;;;;;;;20.53;89.47;97382.25;5023892;28;20045;-66
2023/09/13 10:16:54;;;;;;;6.03;3.20;;;;;;;20.68;88.04;97392.00;5025052;28;20049;-66
2023/09/13 10:19:28;;;;;;;4.70;2.70;;;;;;;20.96;87.86;97399.25;5025102;28;20713;-66
2023/09/13 10:21:56;;;;;;;4.47;2.67;;;;;;;21.14;86.47;97405.56;5027162;28;20524;-66
2023/09/13 10:24:27;;;;;;;4.40;2.25;;;;;;;21.27;81.25;97404.63;5024530;28;20044;-66
2023/09/13 10:26:55;;;;;;;4.50;2.47;;;;;;;20.97;79.86;97393.38;5025203;28;20076;-66
2023/09/13 10:29:45;;;;;;;3.63;2.10;;;;;;;21.03;79.95;97399.56;5021447;28;20045;-66
2023/09/13 10:32:15;;;;;;;4.07;2.10;;;;;;;20.82;79.85;97402.88;5025598;28;20087;-66
2023/09/13 10:34:49;;;;;;;4.18;2.03;;;;;;;20.83;80.88;97390.75;5027692;28;20046;-66
2023/09/13 10:37:42;;;;;;;6.03;2.72;;;;;;;20.89;79.41;97396.94;5023859;28;20045;-66
2023/09/13 10:40:13;;;;;;;4.53;2.70;;;;;;;21.00;80.29;97401.00;5026585;28;20068;-66
2023/09/13 10:42:40;;;;;;;4.32;2.50;;;;;;;21.21;80.38;97396.84;5026130;28;20098;-66
2023/09/13 10:45:08;;;;;;;4.78;2.17;;;;;;;21.22;80.10;97393.75;5023713;28;20096;-66
2023/09/13 10:47:37;;;;;;;4.70;2.60;;;;;;;21.31;81.20;97388.28;5023219;28;20049;-66
2023/09/13 10:50:07;;;;;;;4.63;2.83;;;;;;;21.13;77.74;97391.00;5025730;28;20037;-63
2023/09/13 10:52:34;;;;;;;5.03;2.15;;;;;;;21.47;78.51;97387.78;5019584;28;20069;-63
2023/09/13 10:55:06;;;;;;;3.47;2.10;;;;;;;21.28;77.14;97388.91;5021618;28;20681;-64
2023/09/13 10:57:34;;;;;;;4.88;1.90;;;;;;;21.56;77.82;97383.13;5024453;28;20048;-65
2023/09/13 11:00:09;;;;;;;3.72;2.17;;;;;;;21.53;75.14;97390.06;5024206;28;20064;-66
2023/09/13 11:02:41;;;;;;;3.45;2.08;;;;;;;21.55;76.48;97386.97;5021987;28;20065;-66
2023/09/13 11:05:10;;;;;;;3.92;2.00;;;;;;;21.59;76.55;97385.19;5025689;28;20439;-66
2023/09/13 11:07:43;;;;;;;17.80;2.75;;;;;;;21.65;75.41;97386.66;5022997;28;20504;-66
2023/09/13 11:10:14;;;;;;;3.72;2.00;;;;;;;21.61;75.90;97379.38;5022836;28;20045;-66
2023/09/13 11:12:48;;;;;;;3.45;1.90;;;;;;;21.52;76.94;97385.69;5023346;28;20052;-66
2023/09/13 11:15:26;;;;;;;3.92;2.03;;;;;;;21.66;76.79;97388.28;5026165;28;20506;-66
2023/09/13 11:17:55;;;;;;;4.35;2.20;;;;;;;21.64;74.76;97392.50;5026150;28;20463;-66
2023/09/13 11:20:24;;;;;;;4.03;2.53;;;;;;;21.59;75.48;97385.19;5021949;28;20548;-66
2023/09/13 11:23:01;;;;;;;4.47;2.30;;;;;;;21.68;75.35;97396.22;5020599;28;20628;-66
2023/09/13 11:25:46;;;;;;;3.83;2.20;;;;;;;21.87;75.58;97384.06;5024616;28;20040;-63
2023/09/13 11:28:31;;;;;;;4.97;2.63;;;;;;;21.93;75.16;97393.81;5009759;28;20060;-66
2023/09/13 11:30:59;;;;;;;5.25;2.50;;;;;;;22.11;75.10;97388.25;5023514;28;20084;-63
2023/09/13 11:33:27;;;;;;;4.63;2.60;;;;;;;22.29;73.15;97389.03;5022841;28;20042;-65
2023/09/13 11:35:58;;;;;;;3.60;2.50;;;;;;;22.34;73.41;97388.84;5023376;28;20112;-66